Bohdan Lunyov

Olheiro - Dynamo Kyiv
2 Mar 2028
Quinta-feira
Processo

Personalidade

Adaptabilidade (19) Ambição (8) Controvérsia (10) Lealdade (12) Pressão (10) Profissionalismo (17) Espírito Esportivo (5) Temperamento (15)

Perfil

Estilo de Treinamento Democrático
Licença Nacional A
Determinação 8
Gestão de Pessoas 5
Motivação 13
Disciplina 12
Satisfação no Trabalho
100%
Fadiga
0%
Função Olheiro
Salário 61.0K p/s
Contrato 14.03.2029

Desempenho

Comportamento Bom
Eficácia do Treinamento
58%
Desenvolvimento do Jogador
30%
Prevenção de Lesões
70%
Implementação Tática
45%

Eventos Recentes

Participou de uma reunião de recrutamento 7d atrás
Participou de uma reunião de recrutamento 14d atrás
Recomendou um alvo de transferência 14d atrás
Recomendou um alvo de transferência 14d atrás
Participou de uma reunião de recrutamento 21d atrás
Recomendou um alvo de transferência 21d atrás
Recomendou um alvo de transferência 21d atrás
Recomendou um alvo de transferência 28d atrás

Monitorando agora

45
Jogador Clube Status Habilidade Confiança Observado Última observação Último voto
Jean Pedroso Vorskla Ativo 127 / 119 62% 1 07.02.2028 Aprovar
Bohdan Liedniev Metalist Ativo 108 / 114 62% 1 31.01.2028 Aprovar
Ihor Krasnopir Polissia Perdido 128 / 125 40% 1 25.01.2028 -
Jay Stansfield Birmingham Ativo 140 / 135 40% 1 25.01.2028 -
Vicente Poggi Godoy Cruz Ativo 109 / 123 40% 1 07.09.2027 -
Thiago Almada River Plate Ativo 166 / 153 40% 1 01.09.2027 -
Giuseppe Di Serio Spezia Ativo 135 / 126 40% 2 20.08.2027 -
David Romero Parma Ativo 134 / 130 40% 1 20.08.2027 -
Lorenzo Colombo Genoa Ativo 141 / 140 40% 2 19.08.2027 -
Akor Adams Venezia Ativo 146 / 139 40% 2 19.08.2027 -
Jérémy Le Douaron Palermo Ativo 124 / 129 40% 2 16.08.2027 -
Gennaro Borrelli Cagliari Ativo 136 / 128 40% 1 16.08.2027 -
Dany Mota Monza Ativo 140 / 134 40% 3 13.08.2027 -
Santiago Pierotti Lecce Ativo 138 / 133 40% 1 13.08.2027 -
Alexis Cuello San Lorenzo Ativo 114 / 127 40% 1 11.08.2027 -
Konan N'Dri Lecce Ativo 139 / 132 40% 1 10.08.2027 -
Mathias Jørgensen Blackburn Rovers Ativo 125 / 125 40% 1 04.08.2027 -
Joe Gelhardt Hull City Ativo 134 / 134 40% 1 04.08.2027 -
Matija Frigan Parma Ativo 121 / 130 40% 2 28.07.2027 -
Sam Bell Bristol City Ativo 128 / 127 40% 1 18.07.2027 -
Tijjani Noslin Lazio Ativo 144 / 143 40% 1 18.07.2027 -
Stiven Shpendi Empoli Ativo 124 / 124 40% 2 15.07.2027 -
David Okereke Cremonese Ativo 133 / 129 40% 1 13.07.2027 -
Aune Heggebø West Bromwich Albion Ativo 123 / 134 40% 1 09.07.2027 -
Willem Geubbels Lecce Ativo 124 / 129 40% 2 07.07.2027 -
Matheus Davó Maccabi Netanya Ativo 133 / 128 40% 2 22.06.2027 -
Iwan Morgan Grimsby Town Ativo 109 / 117 40% 1 18.06.2027 -
Randy Nteka Rayo Vallecano Ativo 129 / 132 40% 1 17.06.2027 -
Bohdan Boichuk Bukovyna Ativo 103 / 110 58% 1 14.06.2027 Aprovar
Ioannis Pittas CSKA Sofia Perdido 134 / 122 40% 2 22.02.2027 -
Domagoj Drožđek Tractor Ativo 110 / 117 40% 1 22.02.2027 -
Emmanuel Boateng Hapoel Tel Aviv Ativo 115 / 126 40% 2 17.02.2027 -
Wilfried Kanga Al-Fateh Ativo 138 / 130 40% 1 14.02.2027 -
Giuseppe Sibilli Bari Ativo 128 / 117 40% 1 13.02.2027 -
Oumar Camara Vitoria Guimaraes Ativo 120 / 129 40% 1 10.02.2027 -
Mattia Bortolussi Padova Ativo 132 / 126 40% 1 07.02.2027 -
Armstrong Oko-Flex Levski Ativo 110 / 119 40% 1 01.02.2027 -
Karim Hosseini Rah Ahan Ativo 128 / 114 40% 1 01.02.2027 -
Firas Ben Larbi Sharjah Ativo 106 / 121 40% 1 28.01.2027 -
Jordan Larsson Al-Ettifaq Ativo 134 / 113 40% 1 28.01.2027 -
Maksym Luniov Chornomorets Ativo 108 / 100 55% 1 26.01.2027 -
Dramane Kamagaté USM Alger Ativo 91 / 120 40% 1 26.01.2027 -
Julián Quiñones Al-Qadisiyah Ativo 163 / 154 40% 1 24.08.2026 -
Niklas Dorsch Toronto FC Ativo 141 / 124 40% 1 02.08.2026 -
Shaq Moore FC Dallas Ativo 105 / 123 40% 1 02.08.2026 -